Bailey Switch, Kentucky
Current Conditions -  °F | °C
As of 12:53 PM on Sunday 25 Jan 2015 (Local Time) from KLOZ Reporting Station
Clear Clear  
Wind Chill: 10°   Ceiling: Unl
Heat Index: 10°   Visibility: 10mi
Dew Point: -1°   Wind: 13mph
Humidity: 46%   Direction: 180°S
Pressure: 29.72"   Gusts: NA
Location:  36.865°N, 83.9507°W
Report Text: KLOZ 251753Z AUTO 18011KT 10SM CLR 10/M01 A2972 RMK AO2 SLP067 T01001011 10100 20011 58024
Loading
Personal Weather Stations






























Interactive Weather Map New forecast layout! Learn more

10-Day Weather Forecast

Advertisements
Track Severe Weather on mobile